createdAt,value
2023-05-01T00:07:31.776Z,6.57
2023-05-01T00:37:34.771Z,5.73
2023-05-01T01:07:38.839Z,5.75
2023-05-01T01:37:41.735Z,4.90
2023-05-01T02:07:46.010Z,5.43
2023-05-01T02:37:48.867Z,4.40
2023-05-01T03:07:54.301Z,5.43
2023-05-01T03:37:57.280Z,5.20
2023-05-01T04:08:01.350Z,5.63
2023-05-01T04:38:04.225Z,6.67
2023-05-01T05:08:07.671Z,7.07
2023-05-01T05:38:10.560Z,7.50
2023-05-01T06:08:14.170Z,7.73
2023-05-01T06:38:17.218Z,7.23
2023-05-01T07:08:21.249Z,4.53
2023-05-01T07:38:24.178Z,4.60
2023-05-01T08:08:28.834Z,4.10
2023-05-01T08:38:31.784Z,3.50
2023-05-01T09:08:35.983Z,4.45
2023-05-01T09:38:38.945Z,3.85
2023-05-01T10:08:42.784Z,3.80
2023-05-01T10:38:45.637Z,3.60
2023-05-01T11:08:50.534Z,3.47
2023-05-01T11:38:53.539Z,3.13
2023-05-01T12:08:57.592Z,2.93
2023-05-01T12:39:00.514Z,2.60
2023-05-01T13:09:04.239Z,2.93
2023-05-01T13:39:07.271Z,3.03
2023-05-01T14:09:11.672Z,2.57
2023-05-01T14:39:14.687Z,2.30
2023-05-01T15:09:18.346Z,2.87
2023-05-01T15:39:21.465Z,1.55
2023-05-01T16:09:24.784Z,2.00
2023-05-01T16:39:27.649Z,6.83
2023-05-01T17:09:31.729Z,3.10
2023-05-01T17:39:34.579Z,7.10
2023-05-01T18:09:38.370Z,2.70
2023-05-01T18:39:41.426Z,2.27
2023-05-01T19:09:46.489Z,2.70
2023-05-01T19:39:50.084Z,4.07
2023-05-01T20:09:54.213Z,4.80
2023-05-01T20:39:57.844Z,5.60
2023-05-01T21:10:01.540Z,8.13
2023-05-01T21:40:05.171Z,12.40
2023-05-01T22:10:08.112Z,16.73
2023-05-01T22:40:11.659Z,14.50
2023-05-01T23:10:14.829Z,12.20
2023-05-01T23:40:18.132Z,10.03
